Time,TemperatureF,DewpointF,PressureIn,WindDirection,WindDirectionDegrees,WindSpeedMPH,WindSpeedGustMPH,Humidity,HourlyPrecipIn,Conditions,Clouds,dailyrainin,SoftwareType,DateUTC
2018-02-25 00:00:00,72.0,70.0,-100.00,South,170,10.0,11.0,94,-99.99,,,-99.99,,2018-02-25 06:00:00,
2018-02-25 00:32:00,72.0,70.0,-100.00,South,170,-999.9,-999.0,94,-99.99,,,-99.99,,2018-02-25 06:32:00,
2018-02-25 01:00:00,72.0,70.0,-100.00,South,170,9.0,10.0,94,-99.99,,,-99.99,,2018-02-25 07:00:00,
2018-02-25 01:32:00,72.0,70.0,-100.00,South,170,9.0,-999.0,94,-99.99,,,-99.99,,2018-02-25 07:32:00,
2018-02-25 02:00:00,71.0,70.0,-100.00,South,180,9.0,10.0,94,-99.99,,,-99.99,,2018-02-25 08:00:00,
2018-02-25 02:34:00,71.0,70.0,-100.00,South,180,9.0,10.0,94,-99.99,,,-99.99,,2018-02-25 08:34:00,
2018-02-25 03:00:00,72.0,70.0,-100.00,South,180,10.0,13.0,94,-99.99,,,-99.99,,2018-02-25 09:00:00,
2018-02-25 04:32:00,72.0,70.0,-100.00,South,170,9.0,11.0,93,-99.99,,,-99.99,,2018-02-25 10:32:00,
2018-02-25 05:00:00,72.0,70.0,-100.00,South,180,9.0,10.0,93,-99.99,,,-99.99,,2018-02-25 11:00:00,
2018-02-25 05:32:00,72.0,70.0,-100.00,South,180,9.0,10.0,93,-99.99,,,-99.99,,2018-02-25 11:32:00,
2018-02-25 06:00:00,71.0,69.0,-100.00,South,180,6.0,7.0,93,-99.99,,,-99.99,,2018-02-25 12:00:00,
2018-02-25 06:32:00,71.0,69.0,-100.00,South,180,6.0,7.0,93,-99.99,,,-99.99,,2018-02-25 12:32:00,
2018-02-25 07:00:00,71.0,69.0,-100.00,SSE,160,2.0,2.0,92,-99.99,,,-99.99,,2018-02-25 13:00:00,
2018-02-25 08:00:00,73.0,69.0,-100.00,SE,130,1.0,2.0,87,-99.99,,,-99.99,,2018-02-25 14:00:00,
2018-02-25 08:32:00,73.0,69.0,-100.00,SE,130,1.0,2.0,87,-99.99,,,-99.99,,2018-02-25 14:32:00,
2018-02-25 09:00:00,72.0,69.0,-100.00,SE,140,5.0,5.0,90,-99.99,,,-99.99,,2018-02-25 15:00:00,
2018-02-25 09:32:00,72.0,69.0,-100.00,SE,140,5.0,5.0,90,-99.99,,,-99.99,,2018-02-25 15:32:00,
2018-02-25 10:00:00,66.0,61.0,-100.00,North,360,30.0,33.0,84,-99.99,,,-99.99,,2018-02-25 16:00:00,
2018-02-25 11:00:00,64.0,60.0,-100.00,North,10,24.0,26.0,85,-99.99,,,-99.99,,2018-02-25 17:00:00,
2018-02-25 11:32:00,64.0,60.0,-100.00,North,10,24.0,26.0,85,-99.99,,,-99.99,,2018-02-25 17:32:00,
2018-02-25 12:00:00,64.0,59.0,-100.00,NNE,20,22.0,25.0,83,-99.99,,,-99.99,,2018-02-25 18:00:00,
2018-02-25 12:34:00,64.0,59.0,-100.00,NNE,20,22.0,25.0,83,-99.99,,,-99.99,,2018-02-25 18:34:00,
2018-02-25 13:00:00,66.0,60.0,-100.00,NE,40,18.0,20.0,81,-99.99,,,-99.99,,2018-02-25 19:00:00,
2018-02-25 13:32:00,66.0,60.0,-100.00,NE,40,18.0,20.0,81,-99.99,,,-99.99,,2018-02-25 19:32:00,
2018-02-25 14:00:00,67.0,60.0,-100.00,NE,50,17.0,20.0,79,-99.99,,,-99.99,,2018-02-25 20:00:00,
2018-02-25 14:32:00,67.0,60.0,-100.00,NE,50,17.0,20.0,79,-99.99,,,-99.99,,2018-02-25 20:32:00,
2018-02-25 15:00:00,68.0,60.0,-100.00,NE,50,17.0,20.0,75,-99.99,,,-99.99,,2018-02-25 21:00:00,
2018-02-25 15:34:00,68.0,60.0,-100.00,NE,50,17.0,20.0,75,-99.99,,,-99.99,,2018-02-25 21:34:00,
2018-02-25 16:00:00,67.0,60.0,-100.00,ENE,60,17.0,20.0,79,-99.99,,,-99.99,,2018-02-25 22:00:00,
2018-02-25 16:32:00,67.0,60.0,-100.00,ENE,60,17.0,20.0,79,-99.99,,,-99.99,,2018-02-25 22:32:00,
2018-02-25 17:00:00,67.0,60.0,-100.00,ENE,70,18.0,21.0,77,-99.99,,,-99.99,,2018-02-25 23:00:00,
2018-02-25 17:32:00,67.0,60.0,-100.00,ENE,70,18.0,21.0,77,-99.99,,,-99.99,,2018-02-25 23:32:00,
2018-02-25 18:32:00,69.0,61.0,-100.00,ENE,70,14.0,15.0,76,-99.99,,,-99.99,,2018-02-26 00:32:00,